CMB56 KCMH-KLGA
Flight info
| Callsign | CMB56 |
|---|---|
| Flight time | 1h 10m |
| Altitude | 35000 |
| Route | RDBUV WWSHR SPYDY Q186 WEVEL ETG MIP4 |
| Aircraft | A320/M-SDE3FGHIRWY/LB1 |
Departure
| Time | 2026-05-09 03:10 |
|---|---|
| Airport | John Glenn Columbus International Airport (KCMH) |
Arrival
| Time | 2026-05-09 04:20 |
|---|---|
| Airport | LaGuardia Airport (KLGA) |
| Time | Latitude | Longitude | Altitude | Speed | Heading |
|---|---|---|---|---|---|
| 2026-05-09 02:40 | 39.99648 | -82.88505 | 825 ft | 0 kts | 4° |
| 2026-05-09 03:01 | 39.99646 | -82.88505 | 825 ft | 2 kts | 4° |
| 2026-05-09 03:02 | 39.99620 | -82.88509 | 825 ft | 4 kts | 14° |
| 2026-05-09 03:02 | 39.99597 | -82.88522 | 825 ft | 4 kts | 57° |
| 2026-05-09 03:02 | 39.99593 | -82.88536 | 823 ft | 0 kts | 94° |
| 2026-05-09 03:06 | 39.99591 | -82.88511 | 825 ft | 7 kts | 94° |
| 2026-05-09 03:06 | 39.99587 | -82.88441 | 825 ft | 9 kts | 94° |
| 2026-05-09 03:06 | 39.99580 | -82.88352 | 825 ft | 10 kts | 106° |
| 2026-05-09 03:06 | 39.99517 | -82.88321 | 825 ft | 11 kts | 192° |
| 2026-05-09 03:07 | 39.99436 | -82.88328 | 822 ft | 13 kts | 172° |
| 2026-05-09 03:07 | 39.99390 | -82.88225 | 825 ft | 16 kts | 95° |
| 2026-05-09 03:07 | 39.99381 | -82.88075 | 823 ft | 18 kts | 94° |
| 2026-05-09 03:07 | 39.99372 | -82.87906 | 825 ft | 20 kts | 94° |
| 2026-05-09 03:08 | 39.99361 | -82.87721 | 825 ft | 22 kts | 94° |
| 2026-05-09 03:08 | 39.99350 | -82.87522 | 825 ft | 19 kts | 94° |
| 2026-05-09 03:08 | 39.99336 | -82.87345 | 823 ft | 18 kts | 114° |
| 2026-05-09 03:08 | 39.99271 | -82.87325 | 823 ft | 10 kts | 187° |
| 2026-05-09 03:09 | 39.99188 | -82.87333 | 824 ft | 13 kts | 192° |
| 2026-05-09 03:09 | 39.99168 | -82.87436 | 824 ft | 14 kts | 274° |
| 2026-05-09 03:09 | 39.99190 | -82.87818 | 824 ft | 78 kts | 274° |
| 2026-05-09 03:09 | 39.99245 | -82.88806 | 826 ft | 137 kts | 274° |
| 2026-05-09 03:10 | 39.99306 | -82.90153 | 1178 ft | 150 kts | 272° |
| 2026-05-09 03:10 | 39.99418 | -82.91506 | 1766 ft | 152 kts | 277° |
| 2026-05-09 03:10 | 39.99507 | -82.92888 | 2384 ft | 153 kts | 274° |
| 2026-05-09 03:10 | 39.99573 | -82.94341 | 2763 ft | 171 kts | 274° |
| 2026-05-09 03:11 | 39.99620 | -82.95993 | 3082 ft | 194 kts | 273° |
| 2026-05-09 03:11 | 39.99671 | -82.97845 | 3421 ft | 216 kts | 278° |
| 2026-05-09 03:11 | 40.00301 | -82.99721 | 3798 ft | 243 kts | 311° |
| 2026-05-09 03:11 | 40.01798 | -83.00822 | 4440 ft | 265 kts | 347° |
| 2026-05-09 03:12 | 40.03671 | -83.00593 | 5282 ft | 280 kts | 16° |
| 2026-05-09 03:12 | 40.05476 | -82.99525 | 6138 ft | 291 kts | 27° |
| 2026-05-09 03:12 | 40.07232 | -82.98134 | 6972 ft | 299 kts | 31° |
| 2026-05-09 03:12 | 40.08986 | -82.96618 | 7831 ft | 305 kts | 32° |
| 2026-05-09 03:13 | 40.12592 | -82.93538 | 9565 ft | 314 kts | 30° |
| 2026-05-09 03:13 | 40.14468 | -82.92017 | 10273 ft | 325 kts | 28° |
| 2026-05-09 03:13 | 40.16476 | -82.90438 | 10561 ft | 348 kts | 27° |
| 2026-05-09 03:14 | 40.18609 | -82.88788 | 11035 ft | 361 kts | 26° |
| 2026-05-09 03:14 | 40.20787 | -82.87112 | 11782 ft | 365 kts | 25° |
| 2026-05-09 03:14 | 40.22953 | -82.85436 | 12545 ft | 367 kts | 25° |
| 2026-05-09 03:14 | 40.25155 | -82.83728 | 12929 ft | 369 kts | 25° |
| 2026-05-09 03:15 | 40.27366 | -82.82010 | 13628 ft | 372 kts | 25° |
| 2026-05-09 03:15 | 40.29601 | -82.80274 | 14329 ft | 375 kts | 25° |
| 2026-05-09 03:15 | 40.31856 | -82.78525 | 14996 ft | 379 kts | 25° |
| 2026-05-09 03:15 | 40.34131 | -82.76757 | 15635 ft | 383 kts | 25° |
| 2026-05-09 03:16 | 40.36436 | -82.74960 | 16260 ft | 387 kts | 25° |
| 2026-05-09 03:16 | 40.38763 | -82.73144 | 16889 ft | 391 kts | 25° |
| 2026-05-09 03:16 | 40.41083 | -82.71346 | 17517 ft | 394 kts | 24° |
| 2026-05-09 03:16 | 40.43484 | -82.69586 | 18117 ft | 397 kts | 23° |
| 2026-05-09 03:17 | 40.45935 | -82.67873 | 18728 ft | 401 kts | 22° |
| 2026-05-09 03:17 | 40.48418 | -82.66176 | 19331 ft | 405 kts | 21° |
| 2026-05-09 03:17 | 40.50932 | -82.64465 | 19930 ft | 409 kts | 21° |
| 2026-05-09 03:17 | 40.53469 | -82.62724 | 20519 ft | 414 kts | 21° |
| 2026-05-09 03:18 | 40.56027 | -82.60950 | 21071 ft | 418 kts | 21° |
| 2026-05-09 03:18 | 40.58608 | -82.59139 | 21592 ft | 423 kts | 21° |
| 2026-05-09 03:18 | 40.61219 | -82.57294 | 22118 ft | 427 kts | 21° |
| 2026-05-09 03:18 | 40.63813 | -82.55457 | 22617 ft | 431 kts | 21° |
| 2026-05-09 03:19 | 40.66462 | -82.53578 | 23102 ft | 435 kts | 21° |
| 2026-05-09 03:19 | 40.69141 | -82.51678 | 23578 ft | 439 kts | 21° |
| 2026-05-09 03:19 | 40.71840 | -82.49770 | 24049 ft | 442 kts | 21° |
| 2026-05-09 03:19 | 40.74564 | -82.47846 | 24509 ft | 446 kts | 20° |
| 2026-05-09 03:20 | 40.77311 | -82.45902 | 24941 ft | 449 kts | 20° |
| 2026-05-09 03:20 | 40.80072 | -82.43946 | 25372 ft | 452 kts | 20° |
| 2026-05-09 03:20 | 40.82815 | -82.42003 | 25793 ft | 455 kts | 20° |
| 2026-05-09 03:20 | 40.85609 | -82.40026 | 26207 ft | 458 kts | 20° |
| 2026-05-09 03:21 | 40.88422 | -82.38034 | 26614 ft | 460 kts | 20° |
| 2026-05-09 03:21 | 40.91257 | -82.36023 | 26992 ft | 463 kts | 20° |
| 2026-05-09 03:21 | 40.94103 | -82.34000 | 27371 ft | 466 kts | 19° |
| 2026-05-09 03:21 | 40.96971 | -82.31955 | 27731 ft | 469 kts | 19° |
| 2026-05-09 03:22 | 40.99852 | -82.29899 | 28115 ft | 472 kts | 19° |
| 2026-05-09 03:22 | 41.02750 | -82.27829 | 28480 ft | 475 kts | 19° |
| 2026-05-09 03:22 | 41.05624 | -82.25774 | 28851 ft | 477 kts | 19° |
| 2026-05-09 03:22 | 41.08545 | -82.23685 | 29184 ft | 480 kts | 19° |
| 2026-05-09 03:23 | 41.11507 | -82.21565 | 29508 ft | 483 kts | 19° |
| 2026-05-09 03:23 | 41.14466 | -82.19442 | 29818 ft | 486 kts | 19° |
| 2026-05-09 03:23 | 41.17452 | -82.17299 | 30139 ft | 489 kts | 19° |
| 2026-05-09 03:23 | 41.20447 | -82.15143 | 30448 ft | 491 kts | 18° |
| 2026-05-09 03:24 | 41.23456 | -82.12975 | 30757 ft | 494 kts | 18° |
| 2026-05-09 03:24 | 41.26471 | -82.10798 | 31191 ft | 492 kts | 18° |
| 2026-05-09 03:24 | 41.29456 | -82.08558 | 31593 ft | 498 kts | 23° |
| 2026-05-09 03:24 | 41.32235 | -82.05696 | 31989 ft | 513 kts | 34° |
| 2026-05-09 03:25 | 41.34614 | -82.02179 | 32421 ft | 525 kts | 46° |
| 2026-05-09 03:25 | 41.36550 | -81.98017 | 32824 ft | 535 kts | 58° |
| 2026-05-09 03:25 | 41.38053 | -81.93460 | 33219 ft | 538 kts | 61° |
| 2026-05-09 03:25 | 41.39517 | -81.88872 | 33610 ft | 538 kts | 61° |
| 2026-05-09 03:26 | 41.40981 | -81.84280 | 33992 ft | 538 kts | 61° |
| 2026-05-09 03:26 | 41.42437 | -81.79702 | 34398 ft | 538 kts | 61° |
| 2026-05-09 03:26 | 41.43896 | -81.75113 | 34759 ft | 538 kts | 61° |
| 2026-05-09 03:26 | 41.45354 | -81.70520 | 34881 ft | 537 kts | 61° |
| 2026-05-09 03:27 | 41.48235 | -81.61426 | 34898 ft | 535 kts | 61° |
| 2026-05-09 03:27 | 41.51119 | -81.52276 | 34899 ft | 535 kts | 62° |
| 2026-05-09 03:28 | 41.53453 | -81.42792 | 34906 ft | 544 kts | 77° |
| 2026-05-09 03:28 | 41.53800 | -81.32699 | 34905 ft | 547 kts | 96° |
| 2026-05-09 03:29 | 41.52884 | -81.22612 | 34908 ft | 548 kts | 98° |
| 2026-05-09 03:29 | 41.51962 | -81.12579 | 34916 ft | 549 kts | 98° |
| 2026-05-09 03:30 | 41.51022 | -81.02472 | 34923 ft | 549 kts | 98° |
| 2026-05-09 03:30 | 41.50075 | -80.92361 | 34924 ft | 549 kts | 98° |
| 2026-05-09 03:31 | 41.49124 | -80.82244 | 34933 ft | 550 kts | 98° |
| 2026-05-09 03:31 | 41.48163 | -80.72119 | 34938 ft | 550 kts | 98° |
| 2026-05-09 03:32 | 41.47185 | -80.62068 | 34944 ft | 551 kts | 98° |
| 2026-05-09 03:32 | 41.46191 | -80.51938 | 34942 ft | 551 kts | 98° |
| 2026-05-09 03:33 | 41.45194 | -80.41811 | 34948 ft | 551 kts | 98° |
| 2026-05-09 03:33 | 41.44185 | -80.31694 | 34953 ft | 551 kts | 98° |
| 2026-05-09 03:34 | 41.43178 | -80.21638 | 34951 ft | 550 kts | 98° |
| 2026-05-09 03:34 | 41.42160 | -80.11536 | 34955 ft | 551 kts | 98° |
| 2026-05-09 03:35 | 41.41152 | -80.01413 | 34960 ft | 551 kts | 98° |
| 2026-05-09 03:35 | 41.40178 | -79.91292 | 34959 ft | 551 kts | 98° |
| 2026-05-09 03:36 | 41.39212 | -79.81235 | 34965 ft | 552 kts | 98° |
| 2026-05-09 03:36 | 41.38217 | -79.71115 | 34971 ft | 551 kts | 98° |
| 2026-05-09 03:37 | 41.37197 | -79.60997 | 34975 ft | 551 kts | 98° |
| 2026-05-09 03:37 | 41.36175 | -79.50875 | 34975 ft | 551 kts | 98° |
| 2026-05-09 03:38 | 41.35155 | -79.40825 | 34968 ft | 552 kts | 98° |
| 2026-05-09 03:38 | 41.34113 | -79.30704 | 34966 ft | 552 kts | 98° |
| 2026-05-09 03:39 | 41.33069 | -79.20588 | 34965 ft | 552 kts | 98° |
| 2026-05-09 03:39 | 41.32014 | -79.10464 | 34970 ft | 552 kts | 99° |
| 2026-05-09 03:40 | 41.30953 | -79.00412 | 34970 ft | 552 kts | 99° |
| 2026-05-09 03:40 | 41.29877 | -78.90306 | 34969 ft | 552 kts | 99° |
| 2026-05-09 03:41 | 41.28800 | -78.80188 | 34969 ft | 553 kts | 99° |
| 2026-05-09 03:41 | 41.27707 | -78.70081 | 34973 ft | 552 kts | 99° |
| 2026-05-09 03:42 | 41.26606 | -78.60044 | 34980 ft | 552 kts | 99° |
| 2026-05-09 03:42 | 41.25498 | -78.49956 | 34981 ft | 552 kts | 99° |
| 2026-05-09 03:43 | 41.24378 | -78.39853 | 34993 ft | 553 kts | 99° |
| 2026-05-09 03:43 | 41.23239 | -78.29773 | 34995 ft | 552 kts | 99° |
| 2026-05-09 03:44 | 41.22107 | -78.19754 | 34991 ft | 552 kts | 99° |
| 2026-05-09 03:44 | 41.20957 | -78.09686 | 35000 ft | 552 kts | 100° |
| 2026-05-09 03:45 | 41.19727 | -77.99633 | 34990 ft | 552 kts | 101° |
| 2026-05-09 03:45 | 41.18445 | -77.89595 | 34998 ft | 551 kts | 101° |
| 2026-05-09 03:46 | 41.17179 | -77.79631 | 34995 ft | 551 kts | 101° |
| 2026-05-09 03:46 | 41.15919 | -77.69618 | 34986 ft | 551 kts | 101° |
| 2026-05-09 03:47 | 41.14648 | -77.59593 | 34983 ft | 551 kts | 101° |
| 2026-05-09 03:47 | 41.13361 | -77.49573 | 34984 ft | 550 kts | 101° |
| 2026-05-09 03:48 | 41.12060 | -77.39577 | 34985 ft | 550 kts | 101° |
| 2026-05-09 03:48 | 41.10774 | -77.29653 | 34987 ft | 550 kts | 101° |
| 2026-05-09 03:49 | 41.09469 | -77.19658 | 34983 ft | 550 kts | 102° |
| 2026-05-09 03:49 | 41.08147 | -77.09674 | 34989 ft | 550 kts | 102° |
| 2026-05-09 03:50 | 41.06822 | -76.99708 | 34992 ft | 549 kts | 102° |
| 2026-05-09 03:50 | 41.05495 | -76.89744 | 34997 ft | 549 kts | 102° |
| 2026-05-09 03:51 | 41.04166 | -76.79857 | 34987 ft | 549 kts | 102° |
| 2026-05-09 03:51 | 41.02810 | -76.69921 | 34986 ft | 548 kts | 102° |
| 2026-05-09 03:52 | 41.00832 | -76.60228 | 34988 ft | 544 kts | 111° |
| 2026-05-09 03:52 | 40.98534 | -76.50673 | 34987 ft | 544 kts | 111° |
| 2026-05-09 03:53 | 40.96259 | -76.41186 | 34986 ft | 544 kts | 111° |
| 2026-05-09 03:53 | 40.93954 | -76.31650 | 34992 ft | 544 kts | 111° |
| 2026-05-09 03:54 | 40.91633 | -76.22126 | 34998 ft | 544 kts | 112° |
| 2026-05-09 03:54 | 40.89312 | -76.12601 | 34999 ft | 545 kts | 112° |
| 2026-05-09 03:55 | 40.87004 | -76.03147 | 34999 ft | 545 kts | 112° |
| 2026-05-09 03:55 | 40.84667 | -75.93615 | 34998 ft | 545 kts | 112° |
| 2026-05-09 03:56 | 40.82318 | -75.84087 | 34993 ft | 546 kts | 112° |
| 2026-05-09 03:56 | 40.80348 | -75.76194 | 34999 ft | 546 kts | 112° |
| 2026-05-09 03:57 | 40.77970 | -75.66672 | 35001 ft | 546 kts | 112° |
| 2026-05-09 03:57 | 40.75210 | -75.55616 | 35009 ft | 547 kts | 112° |
| 2026-05-09 03:58 | 40.73232 | -75.47698 | 35007 ft | 547 kts | 112° |
| 2026-05-09 03:58 | 40.71001 | -75.38091 | 34650 ft | 550 kts | 109° |
| 2026-05-09 03:59 | 40.70012 | -75.33173 | 33238 ft | 559 kts | 107° |
| 2026-05-09 03:59 | 40.69080 | -75.28191 | 31803 ft | 560 kts | 106° |
| 2026-05-09 03:59 | 40.67858 | -75.21673 | 30651 ft | 541 kts | 109° |
| 2026-05-09 03:59 | 40.67043 | -75.18556 | 30200 ft | 527 kts | 116° |
| 2026-05-09 04:00 | 40.65448 | -75.14323 | 29563 ft | 505 kts | 127° |
| 2026-05-09 04:00 | 40.63501 | -75.10624 | 29009 ft | 494 kts | 136° |
| 2026-05-09 04:00 | 40.61231 | -75.07283 | 28408 ft | 487 kts | 141° |
| 2026-05-09 04:00 | 40.58945 | -75.03984 | 27795 ft | 489 kts | 135° |
| 2026-05-09 04:01 | 40.56989 | -75.00296 | 27158 ft | 495 kts | 125° |
| 2026-05-09 04:01 | 40.55453 | -74.96227 | 26514 ft | 499 kts | 115° |
| 2026-05-09 04:01 | 40.54202 | -74.91974 | 25867 ft | 497 kts | 114° |
| 2026-05-09 04:01 | 40.52956 | -74.87752 | 25230 ft | 494 kts | 114° |
| 2026-05-09 04:02 | 40.51725 | -74.83638 | 24612 ft | 491 kts | 114° |
| 2026-05-09 04:02 | 40.50468 | -74.79480 | 23996 ft | 488 kts | 114° |
| 2026-05-09 04:02 | 40.49235 | -74.75417 | 23459 ft | 484 kts | 114° |
| 2026-05-09 04:02 | 40.47995 | -74.71319 | 22886 ft | 480 kts | 114° |
| 2026-05-09 04:03 | 40.46774 | -74.67269 | 22328 ft | 476 kts | 113° |
| 2026-05-09 04:03 | 40.45561 | -74.63240 | 21767 ft | 472 kts | 114° |
| 2026-05-09 04:03 | 40.44530 | -74.59161 | 21201 ft | 471 kts | 104° |
| 2026-05-09 04:03 | 40.44044 | -74.54975 | 20618 ft | 468 kts | 92° |
| 2026-05-09 04:04 | 40.44141 | -74.50731 | 20036 ft | 463 kts | 80° |
| 2026-05-09 04:04 | 40.44809 | -74.46662 | 19457 ft | 456 kts | 68° |
| 2026-05-09 04:04 | 40.45855 | -74.42765 | 18842 ft | 450 kts | 66° |
| 2026-05-09 04:04 | 40.46877 | -74.38975 | 18159 ft | 435 kts | 66° |
| 2026-05-09 04:05 | 40.47822 | -74.35432 | 17589 ft | 418 kts | 67° |
| 2026-05-09 04:05 | 40.48741 | -74.31970 | 17006 ft | 403 kts | 67° |
| 2026-05-09 04:05 | 40.49648 | -74.28557 | 16416 ft | 389 kts | 66° |
| 2026-05-09 04:05 | 40.50529 | -74.25254 | 15846 ft | 378 kts | 66° |
| 2026-05-09 04:06 | 40.51389 | -74.22036 | 15334 ft | 370 kts | 66° |
| 2026-05-09 04:06 | 40.52230 | -74.18901 | 14744 ft | 373 kts | 66° |
| 2026-05-09 04:06 | 40.52953 | -74.16210 | 14266 ft | 374 kts | 66° |
| 2026-05-09 04:06 | 40.53834 | -74.12985 | 13679 ft | 374 kts | 63° |
| 2026-05-09 04:07 | 40.55106 | -74.10125 | 13115 ft | 364 kts | 45° |
| 2026-05-09 04:07 | 40.56916 | -74.07893 | 12603 ft | 351 kts | 28° |
| 2026-05-09 04:07 | 40.58983 | -74.06475 | 12114 ft | 337 kts | 12° |
| 2026-05-09 04:07 | 40.61200 | -74.05844 | 11945 ft | 300 kts | 356° |
| 2026-05-09 04:08 | 40.63095 | -74.05691 | 11691 ft | 282 kts | 355° |
| 2026-05-09 04:08 | 40.65012 | -74.05545 | 11371 ft | 272 kts | 355° |
| 2026-05-09 04:08 | 40.66916 | -74.05412 | 11131 ft | 274 kts | 355° |
| 2026-05-09 04:08 | 40.68820 | -74.05239 | 10871 ft | 278 kts | 2° |
| 2026-05-09 04:09 | 40.70423 | -74.04645 | 10659 ft | 288 kts | 17° |
| 2026-05-09 04:09 | 40.72268 | -74.03377 | 10398 ft | 291 kts | 22° |
| 2026-05-09 04:09 | 40.74001 | -74.02129 | 10148 ft | 290 kts | 22° |
| 2026-05-09 04:09 | 40.75810 | -74.00821 | 9927 ft | 289 kts | 22° |
| 2026-05-09 04:10 | 40.77234 | -73.99791 | 9727 ft | 290 kts | 23° |
| 2026-05-09 04:10 | 40.78985 | -73.98524 | 9374 ft | 288 kts | 23° |
| 2026-05-09 04:10 | 40.80742 | -73.97254 | 8979 ft | 285 kts | 23° |
| 2026-05-09 04:10 | 40.82482 | -73.95997 | 8567 ft | 284 kts | 23° |
| 2026-05-09 04:11 | 40.84220 | -73.94775 | 8176 ft | 282 kts | 23° |
| 2026-05-09 04:11 | 40.85752 | -73.93718 | 7821 ft | 280 kts | 22° |
| 2026-05-09 04:11 | 40.87355 | -73.92619 | 7461 ft | 278 kts | 22° |
| 2026-05-09 04:11 | 40.89044 | -73.91463 | 7081 ft | 276 kts | 23° |
| 2026-05-09 04:12 | 40.90721 | -73.90236 | 6691 ft | 276 kts | 31° |
| 2026-05-09 04:12 | 40.92273 | -73.88746 | 6282 ft | 275 kts | 33° |
| 2026-05-09 04:12 | 40.93802 | -73.87261 | 5895 ft | 272 kts | 33° |
| 2026-05-09 04:12 | 40.95269 | -73.85830 | 5809 ft | 252 kts | 33° |
| 2026-05-09 04:13 | 40.96562 | -73.84400 | 5709 ft | 234 kts | 50° |
| 2026-05-09 04:13 | 40.97190 | -73.82521 | 5611 ft | 220 kts | 84° |
| 2026-05-09 04:13 | 40.97152 | -73.81208 | 5454 ft | 215 kts | 107° |
| 2026-05-09 04:13 | 40.96498 | -73.79524 | 5128 ft | 206 kts | 130° |
| 2026-05-09 04:14 | 40.95642 | -73.78005 | 4817 ft | 206 kts | 130° |
| 2026-05-09 04:14 | 40.94719 | -73.76588 | 4506 ft | 199 kts | 148° |
| 2026-05-09 04:14 | 40.93523 | -73.75868 | 4238 ft | 183 kts | 176° |
| 2026-05-09 04:14 | 40.92293 | -73.75904 | 4008 ft | 175 kts | 199° |
| 2026-05-09 04:15 | 40.91252 | -73.76529 | 3801 ft | 170 kts | 217° |
| 2026-05-09 04:15 | 40.90256 | -73.77366 | 3610 ft | 170 kts | 216° |
| 2026-05-09 04:15 | 40.89270 | -73.78185 | 3369 ft | 163 kts | 216° |
| 2026-05-09 04:15 | 40.88364 | -73.78930 | 3151 ft | 144 kts | 216° |
| 2026-05-09 04:16 | 40.87544 | -73.79604 | 2942 ft | 137 kts | 216° |
| 2026-05-09 04:16 | 40.86821 | -73.80311 | 2763 ft | 133 kts | 228° |
| 2026-05-09 04:16 | 40.86287 | -73.81328 | 2607 ft | 133 kts | 244° |
| 2026-05-09 04:16 | 40.86031 | -73.82510 | 2433 ft | 135 kts | 259° |
| 2026-05-09 04:17 | 40.85774 | -73.83704 | 2287 ft | 136 kts | 247° |
| 2026-05-09 04:17 | 40.85424 | -73.84871 | 2130 ft | 138 kts | 246° |
| 2026-05-09 04:17 | 40.85065 | -73.86049 | 1955 ft | 139 kts | 246° |
| 2026-05-09 04:17 | 40.84707 | -73.87240 | 1781 ft | 140 kts | 246° |
| 2026-05-09 04:18 | 40.84142 | -73.88259 | 1607 ft | 139 kts | 218° |
| 2026-05-09 04:18 | 40.83395 | -73.89040 | 1407 ft | 139 kts | 219° |
| 2026-05-09 04:18 | 40.82664 | -73.89885 | 1219 ft | 140 kts | 221° |
| 2026-05-09 04:18 | 40.81877 | -73.90635 | 1015 ft | 140 kts | 198° |
| 2026-05-09 04:19 | 40.80924 | -73.90710 | 900 ft | 139 kts | 171° |
| 2026-05-09 04:19 | 40.79972 | -73.90488 | 703 ft | 139 kts | 164° |
| 2026-05-09 04:19 | 40.79193 | -73.89793 | 515 ft | 137 kts | 130° |
| 2026-05-09 04:19 | 40.78658 | -73.88750 | 284 ft | 136 kts | 123° |
| 2026-05-09 04:20 | 40.78164 | -73.87705 | 49 ft | 136 kts | 123° |
| 2026-05-09 04:20 | 40.77712 | -73.86768 | 15 ft | 100 kts | 122° |
| 2026-05-09 04:20 | 40.77480 | -73.86341 | 14 ft | 35 kts | 148° |
| 2026-05-09 04:20 | 40.77337 | -73.86265 | 12 ft | 20 kts | 187° |
| 2026-05-09 04:21 | 40.77259 | -73.86317 | 19 ft | 5 kts | 248° |
| 2026-05-09 04:21 | 40.77273 | -73.86375 | 19 ft | 8 kts | 292° |
| 2026-05-09 04:21 | 40.77292 | -73.86457 | 19 ft | 1 kts | 286° |